createdAt,value
2018-11-20T00:00:24.810Z,100542.77
2018-11-20T00:02:57.324Z,100538.90
2018-11-20T00:05:29.911Z,100535.29
2018-11-20T00:08:02.900Z,100543.10
2018-11-20T00:10:38.581Z,100546.88
2018-11-20T00:13:19.373Z,100541.95
2018-11-20T00:16:54.976Z,100536.45
2018-11-20T00:19:27.850Z,100540.06
2018-11-20T00:22:03.290Z,100543.73
2018-11-20T00:25:34.102Z,100547.05
2018-11-20T00:28:09.634Z,100549.54
2018-11-20T00:30:45.405Z,100549.30
2018-11-20T00:33:17.014Z,100543.89
2018-11-20T00:35:51.576Z,100553.88
2018-11-20T00:38:26.061Z,100553.31
2018-11-20T00:41:01.631Z,100540.75
2018-11-20T00:43:34.337Z,100548.04
2018-11-20T00:46:05.978Z,100533.78
2018-11-20T00:48:38.937Z,100540.88
2018-11-20T00:51:12.486Z,100534.27
2018-11-20T00:53:45.417Z,100545.95
2018-11-20T00:56:35.234Z,100536.66
2018-11-20T00:59:08.071Z,100529.53
2018-11-20T01:01:41.041Z,100521.73
2018-11-20T01:04:14.038Z,100523.06
2018-11-20T01:06:47.699Z,100529.02
2018-11-20T01:09:27.217Z,100517.97
2018-11-20T01:12:00.777Z,100517.05
2018-11-20T01:14:41.549Z,100518.86
2018-11-20T01:17:20.273Z,100513.33
2018-11-20T01:19:54.810Z,100509.09
2018-11-20T01:22:27.617Z,100498.16
2018-11-20T01:25:00.121Z,100498.03
2018-11-20T01:27:34.793Z,100486.69
2018-11-20T01:30:07.661Z,100480.78
2018-11-20T01:32:49.482Z,100468.48
2018-11-20T01:36:23.313Z,100462.61
2018-11-20T01:38:56.252Z,100456.14
2018-11-20T01:41:29.929Z,100455.09
2018-11-20T01:44:01.506Z,100442.81
2018-11-20T01:46:34.155Z,100442.31
2018-11-20T01:49:37.242Z,100441.16
2018-11-20T01:52:08.886Z,100440.20
2018-11-20T01:54:43.516Z,100440.71
2018-11-20T01:57:15.244Z,100433.27
2018-11-20T01:59:52.744Z,100428.47
2018-11-20T02:04:33.437Z,100427.98
2018-11-20T02:07:08.894Z,100426.84
2018-11-20T02:09:43.580Z,100420.77
2018-11-20T02:12:16.521Z,100424.59
2018-11-20T02:14:50.144Z,100421.97
2018-11-20T02:17:23.735Z,100417.97
2018-11-20T02:19:55.362Z,100409.48
2018-11-20T02:22:27.898Z,100410.26
2018-11-20T02:25:00.537Z,100394.84
2018-11-20T02:27:33.405Z,100398.21
2018-11-20T02:30:06.159Z,100397.59
2018-11-20T02:32:42.767Z,100391.02
2018-11-20T02:36:13.495Z,100386.00
2018-11-20T02:38:49.019Z,100384.98
2018-11-20T02:41:25.602Z,100395.99
2018-11-20T02:43:58.241Z,100387.65
2018-11-20T02:46:31.945Z,100398.30
2018-11-20T02:49:05.553Z,100396.94
2018-11-20T02:51:39.095Z,100400.45
2018-11-20T02:54:11.898Z,100395.56
2018-11-20T02:58:49.613Z,100408.69
2018-11-20T03:01:24.120Z,100417.33
2018-11-20T03:03:57.775Z,100405.88
2018-11-20T03:06:32.246Z,100412.06
2018-11-20T03:11:14.253Z,100409.83
2018-11-20T03:13:47.785Z,100418.16
2018-11-20T03:16:20.561Z,100412.69
2018-11-20T03:18:55.069Z,100424.55
2018-11-20T03:21:29.693Z,100421.30
2018-11-20T03:24:02.624Z,100404.84
2018-11-20T03:26:34.252Z,100406.43
2018-11-20T03:29:11.826Z,100402.53
2018-11-20T03:31:44.717Z,100406.63
2018-11-20T03:34:16.342Z,100394.50
2018-11-20T03:37:08.010Z,100400.88
2018-11-20T03:39:39.654Z,100397.63
2018-11-20T03:42:13.169Z,100387.63
2018-11-20T03:44:49.784Z,100371.75
2018-11-20T03:47:26.422Z,100375.97
2018-11-20T03:49:59.860Z,100374.38
2018-11-20T03:52:34.397Z,100390.72
2018-11-20T03:55:10.951Z,100364.91
2018-11-20T03:57:43.850Z,100362.86
2018-11-20T04:00:21.492Z,100354.60
2018-11-20T04:02:57.162Z,100364.22
2018-11-20T04:06:00.207Z,100363.05
2018-11-20T04:08:37.773Z,100356.07
2018-11-20T04:11:10.610Z,100353.83
2018-11-20T04:14:42.332Z,100351.47
2018-11-20T04:17:15.070Z,100356.57
2018-11-20T04:19:47.973Z,100362.44
2018-11-20T04:22:20.860Z,100364.02
2018-11-20T04:26:59.750Z,100367.27
2018-11-20T04:29:33.315Z,100353.94
2018-11-20T04:32:07.890Z,100354.21
2018-11-20T04:34:40.340Z,100351.00
2018-11-20T04:37:11.968Z,100361.19
2018-11-20T04:39:44.793Z,100355.52
2018-11-20T04:42:17.592Z,100356.70
2018-11-20T04:44:51.270Z,100356.67
2018-11-20T04:48:25.021Z,100353.45
2018-11-20T04:51:02.561Z,100350.72
2018-11-20T04:53:34.990Z,100347.16
2018-11-20T04:56:07.745Z,100356.20
2018-11-20T04:58:41.381Z,100352.18
2018-11-20T05:01:20.067Z,100351.02
2018-11-20T05:03:57.761Z,100348.85
2018-11-20T05:08:34.398Z,100351.02
2018-11-20T05:11:06.034Z,100349.52
2018-11-20T05:13:43.546Z,100358.64
2018-11-20T05:16:16.486Z,100354.55
2018-11-20T05:18:49.411Z,100357.78
2018-11-20T05:21:21.037Z,100355.42
2018-11-20T05:23:53.934Z,100352.66
2018-11-20T05:26:28.385Z,100362.17
2018-11-20T05:29:01.058Z,100355.22
2018-11-20T05:31:36.650Z,100348.45
2018-11-20T05:34:11.135Z,100349.34
2018-11-20T05:36:55.954Z,100346.41
2018-11-20T05:39:28.582Z,100338.24
2018-11-20T05:42:06.330Z,100334.72
2018-11-20T05:44:39.291Z,100334.03
2018-11-20T05:47:12.005Z,100332.85
2018-11-20T05:49:44.828Z,100322.08
2018-11-20T05:52:17.545Z,100321.56
2018-11-20T05:54:51.053Z,100322.95
2018-11-20T05:57:23.845Z,100324.70
2018-11-20T05:59:57.425Z,100329.73
2018-11-20T06:02:31.988Z,100331.38
2018-11-20T06:05:06.604Z,100336.58
2018-11-20T06:07:39.133Z,100335.31
2018-11-20T06:10:10.763Z,100338.25
2018-11-20T06:14:51.581Z,100336.09
2018-11-20T06:17:24.417Z,100344.81
2018-11-20T06:20:08.099Z,100342.55
2018-11-20T06:22:42.649Z,100338.25
2018-11-20T06:25:15.152Z,100339.91
2018-11-20T06:27:47.808Z,100338.53
2018-11-20T06:30:53.850Z,100341.67
2018-11-20T06:33:28.360Z,100342.47
2018-11-20T06:36:01.199Z,100341.10
2018-11-20T06:38:33.637Z,100341.39
2018-11-20T06:41:14.447Z,100334.92
2018-11-20T06:44:50.264Z,100332.65
2018-11-20T06:47:23.008Z,100338.16
2018-11-20T06:49:55.630Z,100332.37
2018-11-20T06:52:30.142Z,100335.80
2018-11-20T06:55:03.035Z,100332.94
2018-11-20T06:59:39.639Z,100328.53
2018-11-20T07:02:12.073Z,100322.86
2018-11-20T07:04:44.805Z,100321.17
2018-11-20T07:07:17.686Z,100321.95
2018-11-20T07:09:51.154Z,100325.78
2018-11-20T07:12:22.789Z,100328.52
2018-11-20T07:14:55.542Z,100329.11
2018-11-20T07:17:33.020Z,100334.89
2018-11-20T07:20:05.905Z,100333.05
2018-11-20T07:22:57.615Z,100319.90
2018-11-20T07:25:30.387Z,100333.44
2018-11-20T07:28:03.901Z,100327.83
2018-11-20T07:30:35.550Z,100322.05
2018-11-20T07:33:09.050Z,100320.40
2018-11-20T07:35:56.699Z,100332.47
2018-11-20T07:38:28.330Z,100324.81
2018-11-20T07:40:59.954Z,100326.65
2018-11-20T07:43:35.500Z,100328.42
2018-11-20T07:46:09.942Z,100316.94
2018-11-20T07:48:47.753Z,100307.23
2018-11-20T07:51:20.553Z,100305.64
2018-11-20T07:53:56.061Z,100304.68
2018-11-20T07:56:35.683Z,100293.48
2018-11-20T07:59:08.338Z,100292.78
2018-11-20T08:01:41.883Z,100292.60
2018-11-20T08:04:13.538Z,100295.52
2018-11-20T08:08:52.979Z,100296.71
2018-11-20T08:11:24.611Z,100289.55
2018-11-20T08:13:59.177Z,100285.13
2018-11-20T08:16:33.735Z,100281.80
2018-11-20T08:19:07.398Z,100281.70
2018-11-20T08:21:55.172Z,100277.55
2018-11-20T08:24:28.090Z,100284.61
2018-11-20T08:27:01.100Z,100266.25
2018-11-20T08:29:32.742Z,100273.63
2018-11-20T08:32:08.211Z,100274.90
2018-11-20T08:34:41.161Z,100271.07
2018-11-20T08:38:18.880Z,100261.64
2018-11-20T08:40:51.745Z,100263.70
2018-11-20T08:43:27.413Z,100273.88
2018-11-20T08:46:04.026Z,100266.92
2018-11-20T08:48:37.542Z,100265.33
2018-11-20T08:51:10.337Z,100273.27
2018-11-20T08:53:41.979Z,100268.09
2018-11-20T08:56:15.586Z,100276.75
2018-11-20T08:58:48.221Z,100276.21
2018-11-20T09:01:27.988Z,100273.66
2018-11-20T09:04:05.474Z,100271.71
2018-11-20T09:06:41.018Z,100277.10
2018-11-20T09:09:15.549Z,100277.70
2018-11-20T09:11:48.361Z,100266.68
2018-11-20T09:14:21.221Z,100270.01
2018-11-20T09:16:54.054Z,100272.84
2018-11-20T09:19:31.786Z,100276.95
2018-11-20T09:22:05.212Z,100280.54
2018-11-20T09:24:38.153Z,100269.80
2018-11-20T09:28:08.701Z,100273.41
2018-11-20T09:30:41.393Z,100260.47
2018-11-20T09:33:13.071Z,100261.03
2018-11-20T09:35:45.871Z,100268.91
2018-11-20T09:38:19.362Z,100261.92
2018-11-20T09:40:50.997Z,100262.30
2018-11-20T09:44:22.429Z,100261.98
2018-11-20T09:46:55.133Z,100258.47
2018-11-20T09:49:27.918Z,100265.27
2018-11-20T09:52:03.602Z,100267.53
2018-11-20T09:56:43.229Z,100261.75
2018-11-20T09:59:16.806Z,100260.77
2018-11-20T10:01:56.428Z,100252.64
2018-11-20T10:05:30.921Z,100249.26
2018-11-20T10:08:03.805Z,100247.38
2018-11-20T10:10:36.730Z,100243.55
2018-11-20T10:13:09.351Z,100244.93
2018-11-20T10:15:42.985Z,100247.31
2018-11-20T10:18:27.802Z,100236.55
2018-11-20T10:21:00.292Z,100234.38
2018-11-20T10:23:37.903Z,100230.93
2018-11-20T10:26:11.533Z,100233.83
2018-11-20T10:29:10.554Z,100235.49
2018-11-20T10:31:43.405Z,100227.61
2018-11-20T10:34:19.229Z,100224.22
2018-11-20T10:36:54.690Z,100222.28
2018-11-20T10:39:30.313Z,100223.22
2018-11-20T10:42:03.021Z,100216.16
2018-11-20T10:44:40.559Z,100220.00
2018-11-20T10:47:15.126Z,100218.83
2018-11-20T10:49:49.773Z,100216.73
2018-11-20T10:52:22.475Z,100212.27
2018-11-20T10:54:57.054Z,100204.67
2018-11-20T10:57:32.585Z,100212.11
2018-11-20T11:00:11.199Z,100212.61
2018-11-20T11:02:44.053Z,100202.48
2018-11-20T11:05:16.972Z,100197.62
2018-11-20T11:07:49.990Z,100195.27
2018-11-20T11:10:23.479Z,100194.11
2018-11-20T11:12:56.341Z,100198.11
2018-11-20T11:15:39.149Z,100188.41
2018-11-20T11:18:12.148Z,100197.41
2018-11-20T11:20:45.102Z,100193.57
2018-11-20T11:23:18.111Z,100174.53
2018-11-20T11:25:52.790Z,100180.55
2018-11-20T11:28:32.423Z,100178.91
2018-11-20T11:31:07.046Z,100178.34
2018-11-20T11:33:38.669Z,100169.76
2018-11-20T11:36:16.251Z,100185.83
2018-11-20T11:38:50.810Z,100177.34
2018-11-20T11:41:26.358Z,100178.29
2018-11-20T11:43:59.161Z,100184.16
2018-11-20T11:46:31.915Z,100175.98
2018-11-20T11:49:37.979Z,100175.06
2018-11-20T11:52:13.685Z,100172.63
2018-11-20T11:54:45.439Z,100161.69
2018-11-20T11:57:18.104Z,100152.66
2018-11-20T11:59:51.067Z,100138.44
